sensor_id;sensor_type;location;lat;lon;timestamp;pressure;altitude;pressure_sealevel;temperature;humidity
78679;BME280;67994;59.334;13.528;2023-07-13T00:00:00;99900.0;;;14.7;86.5
78679;BME280;67994;59.334;13.528;2023-07-13T00:01:00;99900.0;;;14.7;86.9
78679;BME280;67994;59.334;13.528;2023-07-13T00:02:00;99900.0;;;14.7;86.6
78679;BME280;67994;59.334;13.528;2023-07-13T00:03:00;99900.0;;;14.7;86.3
78679;BME280;67994;59.334;13.528;2023-07-13T00:04:01;99900.0;;;14.8;86.2
78679;BME280;67994;59.334;13.528;2023-07-13T00:05:00;99900.0;;;14.7;86.7
78679;BME280;67994;59.334;13.528;2023-07-13T00:06:01;99900.0;;;14.7;86.7
78679;BME280;67994;59.334;13.528;2023-07-13T00:07:00;99900.0;;;14.7;86.5
78679;BME280;67994;59.334;13.528;2023-07-13T00:08:00;99900.0;;;14.7;86.0
78679;BME280;67994;59.334;13.528;2023-07-13T00:09:01;99900.0;;;14.7;86.5
78679;BME280;67994;59.334;13.528;2023-07-13T00:10:00;99900.0;;;14.6;86.4
78679;BME280;67994;59.334;13.528;2023-07-13T00:11:00;99900.0;;;14.7;86.8
78679;BME280;67994;59.334;13.528;2023-07-13T00:12:00;99900.0;;;14.7;86.6
78679;BME280;67994;59.334;13.528;2023-07-13T00:13:00;99900.0;;;14.7;86.5
78679;BME280;67994;59.334;13.528;2023-07-13T00:14:00;99900.0;;;14.8;86.5
78679;BME280;67994;59.334;13.528;2023-07-13T00:15:04;99900.0;;;14.7;86.3
78679;BME280;67994;59.334;13.528;2023-07-13T00:16:00;99900.0;;;14.8;86.0
78679;BME280;67994;59.334;13.528;2023-07-13T00:17:00;99900.0;;;14.8;85.9
78679;BME280;67994;59.334;13.528;2023-07-13T00:18:00;99900.0;;;14.7;86.6
78679;BME280;67994;59.334;13.528;2023-07-13T00:19:00;99900.0;;;14.7;86.0
78679;BME280;67994;59.334;13.528;2023-07-13T00:20:00;99900.0;;;14.7;86.5
78679;BME280;67994;59.334;13.528;2023-07-13T00:21:00;99900.0;;;14.7;86.6
78679;BME280;67994;59.334;13.528;2023-07-13T00:22:00;99900.0;;;14.7;86.5
78679;BME280;67994;59.334;13.528;2023-07-13T00:23:00;99900.0;;;14.7;86.5
78679;BME280;67994;59.334;13.528;2023-07-13T00:24:00;99900.0;;;14.7;86.4
78679;BME280;67994;59.334;13.528;2023-07-13T00:25:00;99900.0;;;14.8;86.2
78679;BME280;67994;59.334;13.528;2023-07-13T00:26:00;99900.0;;;14.8;86.0
78679;BME280;67994;59.334;13.528;2023-07-13T00:27:00;99900.0;;;14.8;86.0
78679;BME280;67994;59.334;13.528;2023-07-13T00:28:00;99900.0;;;14.8;86.3
78679;BME280;67994;59.334;13.528;2023-07-13T00:29:00;99900.0;;;14.8;86.1
78679;BME280;67994;59.334;13.528;2023-07-13T00:30:00;99900.0;;;14.7;86.4
78679;BME280;67994;59.334;13.528;2023-07-13T00:31:00;99900.0;;;14.7;86.4
78679;BME280;67994;59.334;13.528;2023-07-13T00:32:00;99900.0;;;14.8;86.1
78679;BME280;67994;59.334;13.528;2023-07-13T00:33:00;99900.0;;;14.7;86.6
78679;BME280;67994;59.334;13.528;2023-07-13T00:34:00;99900.0;;;14.7;86.2
78679;BME280;67994;59.334;13.528;2023-07-13T00:35:00;99900.0;;;14.8;86.4
78679;BME280;67994;59.334;13.528;2023-07-13T00:36:00;99900.0;;;14.7;86.6
78679;BME280;67994;59.334;13.528;2023-07-13T00:37:00;99900.0;;;14.7;86.6
78679;BME280;67994;59.334;13.528;2023-07-13T00:38:00;99900.0;;;14.8;86.3
78679;BME280;67994;59.334;13.528;2023-07-13T00:39:00;99900.0;;;14.7;86.0
78679;BME280;67994;59.334;13.528;2023-07-13T00:40:00;99900.0;;;14.8;86.3
78679;BME280;67994;59.334;13.528;2023-07-13T00:41:00;99900.0;;;14.7;86.5
78679;BME280;67994;59.334;13.528;2023-07-13T00:42:00;99900.0;;;14.7;86.0
78679;BME280;67994;59.334;13.528;2023-07-13T00:43:00;99900.0;;;14.7;86.1
78679;BME280;67994;59.334;13.528;2023-07-13T00:44:00;99900.0;;;14.7;86.1
78679;BME280;67994;59.334;13.528;2023-07-13T00:45:02;99900.0;;;14.7;86.4
78679;BME280;67994;59.334;13.528;2023-07-13T00:46:12;99900.0;;;14.8;86.2
78679;BME280;67994;59.334;13.528;2023-07-13T00:47:00;99900.0;;;14.8;86.3
78679;BME280;67994;59.334;13.528;2023-07-13T00:48:00;99900.0;;;14.8;86.0
78679;BME280;67994;59.334;13.528;2023-07-13T00:49:03;99900.0;;;14.7;85.9
78679;BME280;67994;59.334;13.528;2023-07-13T00:50:00;99900.0;;;14.7;86.1
78679;BME280;67994;59.334;13.528;2023-07-13T00:51:01;99900.0;;;14.8;86.0
78679;BME280;67994;59.334;13.528;2023-07-13T00:52:03;99900.0;;;14.8;85.9
78679;BME280;67994;59.334;13.528;2023-07-13T00:53:00;99900.0;;;14.7;86.7
78679;BME280;67994;59.334;13.528;2023-07-13T00:54:03;99900.0;;;14.7;86.5
78679;BME280;67994;59.334;13.528;2023-07-13T00:55:00;99900.0;;;14.7;86.3
78679;BME280;67994;59.334;13.528;2023-07-13T00:56:00;99900.0;;;14.6;86.7
78679;BME280;67994;59.334;13.528;2023-07-13T00:57:02;99900.0;;;14.6;86.7
78679;BME280;67994;59.334;13.528;2023-07-13T00:58:00;99900.0;;;14.7;86.3
78679;BME280;67994;59.334;13.528;2023-07-13T00:59:02;99900.0;;;14.7;86.3
78679;BME280;67994;59.334;13.528;2023-07-13T01:00:03;99900.0;;;14.8;86.3
78679;BME280;67994;59.334;13.528;2023-07-13T01:01:00;99900.0;;;14.7;86.6
78679;BME280;67994;59.334;13.528;2023-07-13T01:02:00;99900.0;;;14.7;86.6
78679;BME280;67994;59.334;13.528;2023-07-13T01:03:00;99900.0;;;14.7;86.3
78679;BME280;67994;59.334;13.528;2023-07-13T01:04:00;99900.0;;;14.6;86.6
78679;BME280;67994;59.334;13.528;2023-07-13T01:05:00;99900.0;;;14.6;86.5
78679;BME280;67994;59.334;13.528;2023-07-13T01:06:00;99900.0;;;14.7;86.5
78679;BME280;67994;59.334;13.528;2023-07-13T01:07:00;99900.0;;;14.7;86.3
78679;BME280;67994;59.334;13.528;2023-07-13T01:08:01;99900.0;;;14.8;86.0
78679;BME280;67994;59.334;13.528;2023-07-13T01:09:01;99900.0;;;14.7;86.3
78679;BME280;67994;59.334;13.528;2023-07-13T01:10:00;99900.0;;;14.8;86.0
78679;BME280;67994;59.334;13.528;2023-07-13T01:11:00;99900.0;;;14.7;86.4
78679;BME280;67994;59.334;13.528;2023-07-13T01:12:00;99900.0;;;14.7;86.6
78679;BME280;67994;59.334;13.528;2023-07-13T01:13:00;99900.0;;;14.7;86.3
78679;BME280;67994;59.334;13.528;2023-07-13T01:14:00;99900.0;;;14.6;86.2
78679;BME280;67994;59.334;13.528;2023-07-13T01:15:01;99900.0;;;14.7;86.4
78679;BME280;67994;59.334;13.528;2023-07-13T01:16:03;99900.0;;;14.7;86.4
78679;BME280;67994;59.334;13.528;2023-07-13T01:17:00;99900.0;;;14.7;86.3
78679;BME280;67994;59.334;13.528;2023-07-13T01:18:00;99900.0;;;14.7;86.3
78679;BME280;67994;59.334;13.528;2023-07-13T01:19:01;99900.0;;;14.8;86.0
78679;BME280;67994;59.334;13.528;2023-07-13T01:20:00;99900.0;;;14.7;86.1
78679;BME280;67994;59.334;13.528;2023-07-13T01:21:02;99900.0;;;14.7;86.1
78679;BME280;67994;59.334;13.528;2023-07-13T01:22:00;99900.0;;;14.7;86.4
78679;BME280;67994;59.334;13.528;2023-07-13T01:23:00;99900.0;;;14.8;86.2
78679;BME280;67994;59.334;13.528;2023-07-13T01:24:00;99900.0;;;14.7;86.2
78679;BME280;67994;59.334;13.528;2023-07-13T01:25:01;99900.0;;;14.7;86.2
78679;BME280;67994;59.334;13.528;2023-07-13T01:26:00;99900.0;;;14.7;86.9
78679;BME280;67994;59.334;13.528;2023-07-13T01:27:00;99900.0;;;14.8;86.2
78679;BME280;67994;59.334;13.528;2023-07-13T01:28:00;99900.0;;;14.7;86.5
78679;BME280;67994;59.334;13.528;2023-07-13T01:29:00;99900.0;;;14.7;86.4
78679;BME280;67994;59.334;13.528;2023-07-13T01:30:00;99900.0;;;14.7;86.2
78679;BME280;67994;59.334;13.528;2023-07-13T01:31:00;99900.0;;;14.7;86.2
78679;BME280;67994;59.334;13.528;2023-07-13T01:32:00;99900.0;;;14.8;86.0
78679;BME280;67994;59.334;13.528;2023-07-13T01:33:00;99900.0;;;14.7;85.9
78679;BME280;67994;59.334;13.528;2023-07-13T01:34:00;99900.0;;;14.7;85.9
78679;BME280;67994;59.334;13.528;2023-07-13T01:35:00;99900.0;;;14.7;86.4
78679;BME280;67994;59.334;13.528;2023-07-13T01:36:00;99900.0;;;14.7;86.2
78679;BME280;67994;59.334;13.528;2023-07-13T01:37:00;99900.0;;;14.7;86.0
78679;BME280;67994;59.334;13.528;2023-07-13T01:38:00;99900.0;;;14.7;86.3
78679;BME280;67994;59.334;13.528;2023-07-13T01:39:00;99900.0;;;14.7;86.3
78679;BME280;67994;59.334;13.528;2023-07-13T01:40:00;99900.0;;;14.6;86.3
78679;BME280;67994;59.334;13.528;2023-07-13T01:41:00;99900.0;;;14.6;86.4
78679;BME280;67994;59.334;13.528;2023-07-13T01:42:00;99900.0;;;14.7;86.6
78679;BME280;67994;59.334;13.528;2023-07-13T01:43:00;99900.0;;;14.7;86.3
78679;BME280;67994;59.334;13.528;2023-07-13T01:44:00;99900.0;;;14.7;86.5
78679;BME280;67994;59.334;13.528;2023-07-13T01:45:00;99900.0;;;14.6;86.7
78679;BME280;67994;59.334;13.528;2023-07-13T01:46:00;99900.0;;;14.7;86.3
78679;BME280;67994;59.334;13.528;2023-07-13T01:47:00;99900.0;;;14.7;86.4
78679;BME280;67994;59.334;13.528;2023-07-13T01:48:00;99900.0;;;14.6;86.6
78679;BME280;67994;59.334;13.528;2023-07-13T01:49:00;99900.0;;;14.6;86.6
78679;BME280;67994;59.334;13.528;2023-07-13T01:50:00;99900.0;;;14.6;87.0
78679;BME280;67994;59.334;13.528;2023-07-13T01:51:00;99900.0;;;14.6;87.0
78679;BME280;67994;59.334;13.528;2023-07-13T01:52:00;99900.0;;;14.6;86.5
78679;BME280;67994;59.334;13.528;2023-07-13T01:53:00;99900.0;;;14.6;86.4
78679;BME280;67994;59.334;13.528;2023-07-13T01:54:00;99900.0;;;14.7;86.3
78679;BME280;67994;59.334;13.528;2023-07-13T01:55:00;99900.0;;;14.6;86.3
78679;BME280;67994;59.334;13.528;2023-07-13T01:56:00;99900.0;;;14.7;86.3
78679;BME280;67994;59.334;13.528;2023-07-13T01:57:00;99900.0;;;14.7;86.0
78679;BME280;67994;59.334;13.528;2023-07-13T01:58:00;99900.0;;;14.8;86.0
78679;BME280;67994;59.334;13.528;2023-07-13T01:59:00;99900.0;;;14.8;86.0
78679;BME280;67994;59.334;13.528;2023-07-13T02:00:02;99900.0;;;14.8;86.2
78679;BME280;67994;59.334;13.528;2023-07-13T02:01:00;99900.0;;;14.7;86.3
78679;BME280;67994;59.334;13.528;2023-07-13T02:02:00;99900.0;;;14.7;86.3
78679;BME280;67994;59.334;13.528;2023-07-13T02:03:00;99900.0;;;14.7;86.5
78679;BME280;67994;59.334;13.528;2023-07-13T02:04:00;99900.0;;;14.7;86.4
78679;BME280;67994;59.334;13.528;2023-07-13T02:05:00;99900.0;;;14.6;86.3
78679;BME280;67994;59.334;13.528;2023-07-13T02:06:00;99900.0;;;14.6;86.3
78679;BME280;67994;59.334;13.528;2023-07-13T02:07:00;99900.0;;;14.7;86.2
78679;BME280;67994;59.334;13.528;2023-07-13T02:08:00;99900.0;;;14.6;86.5
78679;BME280;67994;59.334;13.528;2023-07-13T02:09:00;99900.0;;;14.6;86.5
78679;BME280;67994;59.334;13.528;2023-07-13T02:10:00;99900.0;;;14.6;86.4
78679;BME280;67994;59.334;13.528;2023-07-13T02:11:02;99900.0;;;14.5;86.3
78679;BME280;67994;59.334;13.528;2023-07-13T02:12:00;99900.0;;;14.6;85.9
78679;BME280;67994;59.334;13.528;2023-07-13T02:13:00;99900.0;;;14.6;86.5
78679;BME280;67994;59.334;13.528;2023-07-13T02:14:00;99900.0;;;14.6;86.0
78679;BME280;67994;59.334;13.528;2023-07-13T02:15:00;99900.0;;;14.6;86.0
78679;BME280;67994;59.334;13.528;2023-07-13T02:16:00;99900.0;;;14.6;86.2
78679;BME280;67994;59.334;13.528;2023-07-13T02:17:00;99900.0;;;14.6;86.5
78679;BME280;67994;59.334;13.528;2023-07-13T02:18:00;99900.0;;;14.5;86.4
78679;BME280;67994;59.334;13.528;2023-07-13T02:19:00;99900.0;;;14.5;86.4
78679;BME280;67994;59.334;13.528;2023-07-13T02:20:00;99900.0;;;14.5;86.2
78679;BME280;67994;59.334;13.528;2023-07-13T02:21:00;99900.0;;;14.5;86.2
78679;BME280;67994;59.334;13.528;2023-07-13T02:22:00;99900.0;;;14.6;86.0
78679;BME280;67994;59.334;13.528;2023-07-13T02:23:00;99900.0;;;14.5;86.0
78679;BME280;67994;59.334;13.528;2023-07-13T02:24:01;99900.0;;;14.5;85.8
78679;BME280;67994;59.334;13.528;2023-07-13T02:25:00;99900.0;;;14.5;85.9
78679;BME280;67994;59.334;13.528;2023-07-13T02:26:01;99900.0;;;14.6;85.7
78679;BME280;67994;59.334;13.528;2023-07-13T02:27:00;99900.0;;;14.6;85.8
78679;BME280;67994;59.334;13.528;2023-07-13T02:28:00;99900.0;;;14.5;86.0
78679;BME280;67994;59.334;13.528;2023-07-13T02:29:00;99900.0;;;14.6;86.0
78679;BME280;67994;59.334;13.528;2023-07-13T02:30:00;99900.0;;;14.5;86.1
78679;BME280;67994;59.334;13.528;2023-07-13T02:31:09;99900.0;;;14.6;86.1
78679;BME280;67994;59.334;13.528;2023-07-13T02:32:00;99900.0;;;14.5;86.2
78679;BME280;67994;59.334;13.528;2023-07-13T02:33:00;99900.0;;;14.6;86.0
78679;BME280;67994;59.334;13.528;2023-07-13T02:34:00;99900.0;;;14.6;85.9
78679;BME280;67994;59.334;13.528;2023-07-13T02:35:00;99900.0;;;14.6;85.9
78679;BME280;67994;59.334;13.528;2023-07-13T02:36:00;99900.0;;;14.6;86.0
78679;BME280;67994;59.334;13.528;2023-07-13T02:37:00;99900.0;;;14.6;85.9
78679;BME280;67994;59.334;13.528;2023-07-13T02:38:00;99900.0;;;14.5;86.2
78679;BME280;67994;59.334;13.528;2023-07-13T02:39:02;99900.0;;;14.5;86.4
78679;BME280;67994;59.334;13.528;2023-07-13T02:40:00;99900.0;;;14.6;86.0
78679;BME280;67994;59.334;13.528;2023-07-13T02:41:00;99900.0;;;14.5;86.6
78679;BME280;67994;59.334;13.528;2023-07-13T02:42:00;99900.0;;;14.6;85.9
78679;BME280;67994;59.334;13.528;2023-07-13T02:43:00;99900.0;;;14.6;86.2
78679;BME280;67994;59.334;13.528;2023-07-13T02:44:00;99900.0;;;14.5;86.1
78679;BME280;67994;59.334;13.528;2023-07-13T02:45:00;99900.0;;;14.6;85.9
78679;BME280;67994;59.334;13.528;2023-07-13T02:46:01;99900.0;;;14.6;85.8
78679;BME280;67994;59.334;13.528;2023-07-13T02:47:00;99900.0;;;14.5;85.7
78679;BME280;67994;59.334;13.528;2023-07-13T02:48:00;99900.0;;;14.6;85.5
78679;BME280;67994;59.334;13.528;2023-07-13T02:49:00;99900.0;;;14.6;85.9
78679;BME280;67994;59.334;13.528;2023-07-13T02:50:00;99900.0;;;14.6;86.0
78679;BME280;67994;59.334;13.528;2023-07-13T02:51:00;99900.0;;;14.7;85.5
78679;BME280;67994;59.334;13.528;2023-07-13T02:52:02;99900.0;;;14.7;85.6
78679;BME280;67994;59.334;13.528;2023-07-13T02:53:00;99900.0;;;14.7;85.4
78679;BME280;67994;59.334;13.528;2023-07-13T02:54:00;99900.0;;;14.6;85.6
78679;BME280;67994;59.334;13.528;2023-07-13T02:55:00;99900.0;;;14.6;85.7
78679;BME280;67994;59.334;13.528;2023-07-13T02:56:00;99900.0;;;14.6;85.6
78679;BME280;67994;59.334;13.528;2023-07-13T02:57:00;99900.0;;;14.6;85.8
78679;BME280;67994;59.334;13.528;2023-07-13T02:58:00;99900.0;;;14.6;85.8
78679;BME280;67994;59.334;13.528;2023-07-13T02:59:00;99900.0;;;14.7;85.5
78679;BME280;67994;59.334;13.528;2023-07-13T03:00:00;99900.0;;;14.6;85.6
78679;BME280;67994;59.334;13.528;2023-07-13T03:01:05;99900.0;;;14.8;85.1
78679;BME280;67994;59.334;13.528;2023-07-13T03:02:01;99900.0;;;14.8;85.1
78679;BME280;67994;59.334;13.528;2023-07-13T03:03:00;99900.0;;;14.8;85.4
78679;BME280;67994;59.334;13.528;2023-07-13T03:04:00;99900.0;;;14.8;85.4
78679;BME280;67994;59.334;13.528;2023-07-13T03:05:00;99900.0;;;14.8;85.8
78679;BME280;67994;59.334;13.528;2023-07-13T03:06:02;99900.0;;;15.0;85.1
78679;BME280;67994;59.334;13.528;2023-07-13T03:07:00;99900.0;;;15.0;85.0
78679;BME280;67994;59.334;13.528;2023-07-13T03:08:00;99900.0;;;15.0;84.8
78679;BME280;67994;59.334;13.528;2023-07-13T03:09:00;99900.0;;;15.0;84.8
78679;BME280;67994;59.334;13.528;2023-07-13T03:10:00;99900.0;;;15.2;84.0
78679;BME280;67994;59.334;13.528;2023-07-13T03:11:00;99900.0;;;15.3;84.2
78679;BME280;67994;59.334;13.528;2023-07-13T03:12:00;99900.0;;;15.5;83.9
78679;BME280;67994;59.334;13.528;2023-07-13T03:13:00;99900.0;;;15.5;83.8
78679;BME280;67994;59.334;13.528;2023-07-13T03:14:00;99900.0;;;15.7;83.2
78679;BME280;67994;59.334;13.528;2023-07-13T03:15:00;99900.0;;;15.6;83.0
78679;BME280;67994;59.334;13.528;2023-07-13T03:16:00;99900.0;;;15.6;82.7
78679;BME280;67994;59.334;13.528;2023-07-13T03:17:00;99900.0;;;15.5;83.0
78679;BME280;67994;59.334;13.528;2023-07-13T03:18:00;99900.0;;;15.5;82.8
78679;BME280;67994;59.334;13.528;2023-07-13T03:19:00;99900.0;;;15.6;82.5
78679;BME280;67994;59.334;13.528;2023-07-13T03:20:00;99900.0;;;15.6;82.5
78679;BME280;67994;59.334;13.528;2023-07-13T03:21:00;99900.0;;;15.6;81.7
78679;BME280;67994;59.334;13.528;2023-07-13T03:22:00;99900.0;;;15.9;81.7
78679;BME280;67994;59.334;13.528;2023-07-13T03:23:00;99900.0;;;15.8;81.5
78679;BME280;67994;59.334;13.528;2023-07-13T03:24:00;99900.0;;;16.0;81.0
78679;BME280;67994;59.334;13.528;2023-07-13T03:25:00;99900.0;;;16.2;80.5
78679;BME280;67994;59.334;13.528;2023-07-13T03:26:02;99900.0;;;16.2;80.7
78679;BME280;67994;59.334;13.528;2023-07-13T03:27:01;99900.0;;;16.2;80.5
78679;BME280;67994;59.334;13.528;2023-07-13T03:28:00;99900.0;;;16.2;80.7
78679;BME280;67994;59.334;13.528;2023-07-13T03:29:00;100000.0;;;16.2;80.9
78679;BME280;67994;59.334;13.528;2023-07-13T03:30:00;100000.0;;;16.2;80.9
78679;BME280;67994;59.334;13.528;2023-07-13T03:31:02;99900.0;;;16.1;80.9
78679;BME280;67994;59.334;13.528;2023-07-13T03:32:00;100000.0;;;16.1;80.9
78679;BME280;67994;59.334;13.528;2023-07-13T03:33:00;100000.0;;;16.0;81.5
78679;BME280;67994;59.334;13.528;2023-07-13T03:34:00;100000.0;;;16.0;80.8
78679;BME280;67994;59.334;13.528;2023-07-13T03:35:00;100000.0;;;15.8;81.7
78679;BME280;67994;59.334;13.528;2023-07-13T03:36:00;100000.0;;;15.6;82.0
78679;BME280;67994;59.334;13.528;2023-07-13T03:37:00;100000.0;;;15.4;82.5
78679;BME280;67994;59.334;13.528;2023-07-13T03:38:00;100000.0;;;15.5;82.1
78679;BME280;67994;59.334;13.528;2023-07-13T03:39:02;100000.0;;;15.4;82.3
78679;BME280;67994;59.334;13.528;2023-07-13T03:40:00;100000.0;;;15.4;82.3
78679;BME280;67994;59.334;13.528;2023-07-13T03:41:00;100000.0;;;15.3;82.4
78679;BME280;67994;59.334;13.528;2023-07-13T03:42:00;100000.0;;;15.3;82.0
78679;BME280;67994;59.334;13.528;2023-07-13T03:43:00;100000.0;;;15.4;82.6
78679;BME280;67994;59.334;13.528;2023-07-13T03:44:00;100000.0;;;15.4;81.9
78679;BME280;67994;59.334;13.528;2023-07-13T03:45:00;100000.0;;;15.4;82.5
78679;BME280;67994;59.334;13.528;2023-07-13T03:46:00;100000.0;;;15.3;82.7
78679;BME280;67994;59.334;13.528;2023-07-13T03:47:00;100000.0;;;15.3;82.7
78679;BME280;67994;59.334;13.528;2023-07-13T03:48:00;100000.0;;;15.3;82.9
78679;BME280;67994;59.334;13.528;2023-07-13T03:49:01;100000.0;;;15.3;82.7
78679;BME280;67994;59.334;13.528;2023-07-13T03:50:00;100000.0;;;15.2;82.8
78679;BME280;67994;59.334;13.528;2023-07-13T03:51:00;100000.0;;;15.2;82.8
78679;BME280;67994;59.334;13.528;2023-07-13T03:52:00;100000.0;;;15.2;82.8
78679;BME280;67994;59.334;13.528;2023-07-13T03:53:00;100000.0;;;15.1;82.6
78679;BME280;67994;59.334;13.528;2023-07-13T03:54:00;100000.0;;;15.0;82.9
78679;BME280;67994;59.334;13.528;2023-07-13T03:55:00;100000.0;;;15.1;83.0
78679;BME280;67994;59.334;13.528;2023-07-13T03:56:00;100000.0;;;15.1;83.2
78679;BME280;67994;59.334;13.528;2023-07-13T03:57:00;100000.0;;;15.0;83.7
78679;BME280;67994;59.334;13.528;2023-07-13T03:58:01;100000.0;;;14.9;83.7
78679;BME280;67994;59.334;13.528;2023-07-13T03:59:00;100000.0;;;15.0;83.2
78679;BME280;67994;59.334;13.528;2023-07-13T04:00:00;100000.0;;;15.0;83.3
78679;BME280;67994;59.334;13.528;2023-07-13T04:01:01;100000.0;;;15.0;82.9
78679;BME280;67994;59.334;13.528;2023-07-13T04:02:00;100000.0;;;15.1;82.9
78679;BME280;67994;59.334;13.528;2023-07-13T04:03:00;100000.0;;;15.1;82.8
78679;BME280;67994;59.334;13.528;2023-07-13T04:04:00;100000.0;;;15.0;83.2
78679;BME280;67994;59.334;13.528;2023-07-13T04:05:00;100000.0;;;14.9;82.6
78679;BME280;67994;59.334;13.528;2023-07-13T04:06:01;100000.0;;;14.9;83.1
78679;BME280;67994;59.334;13.528;2023-07-13T04:07:00;100000.0;;;15.1;83.0
78679;BME280;67994;59.334;13.528;2023-07-13T04:08:00;100000.0;;;15.1;82.5
78679;BME280;67994;59.334;13.528;2023-07-13T04:09:02;100000.0;;;15.2;82.9
78679;BME280;67994;59.334;13.528;2023-07-13T04:10:00;100000.0;;;15.1;83.4
78679;BME280;67994;59.334;13.528;2023-07-13T04:11:01;100000.0;;;15.0;83.4
78679;BME280;67994;59.334;13.528;2023-07-13T04:12:00;100000.0;;;15.0;82.9
78679;BME280;67994;59.334;13.528;2023-07-13T04:13:00;100000.0;;;14.9;83.0
78679;BME280;67994;59.334;13.528;2023-07-13T04:14:00;100000.0;;;14.9;83.0
78679;BME280;67994;59.334;13.528;2023-07-13T04:15:00;100000.0;;;15.0;83.2
78679;BME280;67994;59.334;13.528;2023-07-13T04:16:00;100000.0;;;15.0;83.5
78679;BME280;67994;59.334;13.528;2023-07-13T04:17:00;100000.0;;;14.9;83.2
78679;BME280;67994;59.334;13.528;2023-07-13T04:18:00;100000.0;;;14.8;83.2
78679;BME280;67994;59.334;13.528;2023-07-13T04:19:00;100000.0;;;15.0;82.8
78679;BME280;67994;59.334;13.528;2023-07-13T04:20:00;100000.0;;;15.0;83.1
78679;BME280;67994;59.334;13.528;2023-07-13T04:21:00;100000.0;;;15.1;83.2
78679;BME280;67994;59.334;13.528;2023-07-13T04:22:00;100000.0;;;15.1;83.0
78679;BME280;67994;59.334;13.528;2023-07-13T04:23:00;100000.0;;;15.1;83.1
78679;BME280;67994;59.334;13.528;2023-07-13T04:24:00;100000.0;;;15.1;82.7
78679;BME280;67994;59.334;13.528;2023-07-13T04:25:00;100000.0;;;15.2;82.5
78679;BME280;67994;59.334;13.528;2023-07-13T04:26:00;100000.0;;;15.2;82.8
78679;BME280;67994;59.334;13.528;2023-07-13T04:27:00;100000.0;;;15.2;82.7
78679;BME280;67994;59.334;13.528;2023-07-13T04:28:00;100000.0;;;14.9;83.3
78679;BME280;67994;59.334;13.528;2023-07-13T04:29:00;100000.0;;;15.1;82.8
78679;BME280;67994;59.334;13.528;2023-07-13T04:30:00;100000.0;;;15.0;83.2
78679;BME280;67994;59.334;13.528;2023-07-13T04:31:00;100000.0;;;14.9;82.8
78679;BME280;67994;59.334;13.528;2023-07-13T04:32:00;100000.0;;;15.0;82.8
78679;BME280;67994;59.334;13.528;2023-07-13T04:33:00;100000.0;;;14.9;83.5
78679;BME280;67994;59.334;13.528;2023-07-13T04:34:00;100000.0;;;15.0;83.0
78679;BME280;67994;59.334;13.528;2023-07-13T04:35:00;100000.0;;;15.0;83.0
78679;BME280;67994;59.334;13.528;2023-07-13T04:36:00;100000.0;;;14.9;82.7
78679;BME280;67994;59.334;13.528;2023-07-13T04:37:00;100000.0;;;15.0;82.8
78679;BME280;67994;59.334;13.528;2023-07-13T04:38:00;100000.0;;;14.8;82.9
78679;BME280;67994;59.334;13.528;2023-07-13T04:39:00;100000.0;;;14.8;82.9
78679;BME280;67994;59.334;13.528;2023-07-13T04:40:00;100000.0;;;14.8;82.3
78679;BME280;67994;59.334;13.528;2023-07-13T04:41:02;100000.0;;;14.8;82.8
78679;BME280;67994;59.334;13.528;2023-07-13T04:42:00;100000.0;;;14.8;82.8
78679;BME280;67994;59.334;13.528;2023-07-13T04:43:00;100000.0;;;14.9;82.8
78679;BME280;67994;59.334;13.528;2023-07-13T04:44:00;100000.0;;;14.8;83.3
78679;BME280;67994;59.334;13.528;2023-07-13T04:45:00;100000.0;;;14.9;83.1
78679;BME280;67994;59.334;13.528;2023-07-13T04:46:03;100000.0;;;15.0;82.9
78679;BME280;67994;59.334;13.528;2023-07-13T04:47:00;100000.0;;;15.0;82.9
78679;BME280;67994;59.334;13.528;2023-07-13T04:48:00;100000.0;;;15.1;83.0
78679;BME280;67994;59.334;13.528;2023-07-13T04:49:00;100000.0;;;15.2;83.0
78679;BME280;67994;59.334;13.528;2023-07-13T04:50:00;100000.0;;;15.3;82.8
78679;BME280;67994;59.334;13.528;2023-07-13T04:51:00;100000.0;;;15.3;82.6
78679;BME280;67994;59.334;13.528;2023-07-13T04:52:00;100000.0;;;15.3;82.5
78679;BME280;67994;59.334;13.528;2023-07-13T04:53:00;100000.0;;;15.2;82.4
78679;BME280;67994;59.334;13.528;2023-07-13T04:54:00;100000.0;;;15.3;82.2
78679;BME280;67994;59.334;13.528;2023-07-13T04:55:00;100000.0;;;15.2;81.9
78679;BME280;67994;59.334;13.528;2023-07-13T04:56:00;100000.0;;;15.6;82.1
78679;BME280;67994;59.334;13.528;2023-07-13T04:57:00;100000.0;;;15.7;82.1
78679;BME280;67994;59.334;13.528;2023-07-13T04:58:00;100000.0;;;15.7;81.3
78679;BME280;67994;59.334;13.528;2023-07-13T04:59:00;100000.0;;;15.8;80.2
78679;BME280;67994;59.334;13.528;2023-07-13T05:00:00;100000.0;;;16.0;80.4
78679;BME280;67994;59.334;13.528;2023-07-13T05:01:00;100000.0;;;16.1;80.0
78679;BME280;67994;59.334;13.528;2023-07-13T05:02:00;100000.0;;;16.3;79.8
78679;BME280;67994;59.334;13.528;2023-07-13T05:03:00;100000.0;;;16.6;79.5
78679;BME280;67994;59.334;13.528;2023-07-13T05:04:00;100000.0;;;16.5;79.6
78679;BME280;67994;59.334;13.528;2023-07-13T05:05:00;100000.0;;;16.5;79.0
78679;BME280;67994;59.334;13.528;2023-07-13T05:06:03;100000.0;;;16.7;79.6
78679;BME280;67994;59.334;13.528;2023-07-13T05:07:00;100000.0;;;16.6;78.9
78679;BME280;67994;59.334;13.528;2023-07-13T05:08:00;100000.0;;;16.7;79.6
78679;BME280;67994;59.334;13.528;2023-07-13T05:09:00;100000.0;;;16.5;79.3
78679;BME280;67994;59.334;13.528;2023-07-13T05:10:00;100000.0;;;16.7;79.7
78679;BME280;67994;59.334;13.528;2023-07-13T05:11:01;100000.0;;;16.7;78.9
78679;BME280;67994;59.334;13.528;2023-07-13T05:12:00;100000.0;;;16.7;79.0
78679;BME280;67994;59.334;13.528;2023-07-13T05:13:00;100000.0;;;16.5;79.2
78679;BME280;67994;59.334;13.528;2023-07-13T05:14:00;100000.0;;;16.7;79.0
78679;BME280;67994;59.334;13.528;2023-07-13T05:15:01;100000.0;;;16.7;78.8
78679;BME280;67994;59.334;13.528;2023-07-13T05:16:03;100000.0;;;16.6;79.1
78679;BME280;67994;59.334;13.528;2023-07-13T05:17:00;100000.0;;;16.7;79.1
78679;BME280;67994;59.334;13.528;2023-07-13T05:18:00;100000.0;;;16.7;79.2
78679;BME280;67994;59.334;13.528;2023-07-13T05:19:00;100000.0;;;16.7;79.2
78679;BME280;67994;59.334;13.528;2023-07-13T05:20:00;100000.0;;;17.1;78.9
78679;BME280;67994;59.334;13.528;2023-07-13T05:21:01;100000.0;;;17.3;78.5
78679;BME280;67994;59.334;13.528;2023-07-13T05:22:00;100000.0;;;17.3;77.5
78679;BME280;67994;59.334;13.528;2023-07-13T05:23:00;100000.0;;;17.0;78.4
78679;BME280;67994;59.334;13.528;2023-07-13T05:24:00;100000.0;;;17.0;78.0